createdAt,value
2017-04-02T00:00:03.565Z,0
2017-04-02T00:00:44.071Z,0
2017-04-02T00:01:24.543Z,0
2017-04-02T00:02:05.001Z,0
2017-04-02T00:02:45.496Z,0
2017-04-02T00:03:26.014Z,0
2017-04-02T00:04:06.464Z,0
2017-04-02T00:04:46.908Z,0
2017-04-02T00:07:04.706Z,0
2017-04-02T00:07:45.182Z,0
2017-04-02T00:10:18.167Z,0
2017-04-02T00:10:58.624Z,0
2017-04-02T00:13:36.711Z,0
2017-04-02T00:14:17.206Z,0
2017-04-02T00:14:57.660Z,0
2017-04-02T00:15:38.125Z,0
2017-04-02T00:16:18.612Z,0
2017-04-02T00:16:59.098Z,0
2017-04-02T00:17:39.543Z,0
2017-04-02T00:18:20.003Z,0
2017-04-02T00:20:52.986Z,0
2017-04-02T00:21:33.500Z,0
2017-04-02T00:22:13.998Z,0
2017-04-02T00:22:54.497Z,0
2017-04-02T00:23:34.976Z,0
2017-04-02T00:26:02.916Z,0
2017-04-02T00:26:43.404Z,0
2017-04-02T00:27:23.863Z,0
2017-04-02T00:28:04.339Z,0
2017-04-02T00:28:44.810Z,0
2017-04-02T00:29:25.310Z,0
2017-04-02T00:30:05.795Z,0
2017-04-02T00:30:46.279Z,0
2017-04-02T00:31:26.730Z,0
2017-04-02T00:32:07.192Z,0
2017-04-02T00:32:47.636Z,0
2017-04-02T00:33:28.092Z,0
2017-04-02T00:35:40.824Z,0
2017-04-02T00:36:21.265Z,0
2017-04-02T00:37:01.756Z,0
2017-04-02T00:37:42.233Z,0
2017-04-02T00:38:22.669Z,0
2017-04-02T00:40:50.661Z,0
2017-04-02T00:41:31.173Z,0
2017-04-02T00:42:11.641Z,0
2017-04-02T00:42:52.115Z,0
2017-04-02T00:43:32.638Z,0
2017-04-02T00:44:13.056Z,0
2017-04-02T00:46:41.052Z,0
2017-04-02T00:47:21.558Z,0
2017-04-02T00:48:01.990Z,0
2017-04-02T00:48:42.466Z,0
2017-04-02T00:49:22.910Z,0
2017-04-02T00:51:35.635Z,0
2017-04-02T00:52:16.116Z,0
2017-04-02T00:52:56.586Z,0
2017-04-02T00:53:37.083Z,0
2017-04-02T00:54:17.595Z,0
2017-04-02T00:54:58.073Z,0
2017-04-02T00:55:38.533Z,0
2017-04-02T00:56:19.007Z,0
2017-04-02T00:56:59.505Z,0
2017-04-02T00:57:39.973Z,0
2017-04-02T00:58:20.440Z,0
2017-04-02T00:59:00.919Z,0
2017-04-02T00:59:41.428Z,0
2017-04-02T01:00:21.897Z,0
2017-04-02T01:01:02.375Z,0
2017-04-02T01:01:42.835Z,0
2017-04-02T01:02:23.282Z,0
2017-04-02T01:03:03.755Z,0
2017-04-02T01:03:44.200Z,0
2017-04-02T01:04:24.651Z,0
2017-04-02T01:05:05.110Z,0
2017-04-02T01:05:45.558Z,0
2017-04-02T01:08:03.378Z,0
2017-04-02T01:08:43.879Z,0
2017-04-02T01:09:24.383Z,0
2017-04-02T01:10:04.853Z,0
2017-04-02T01:10:45.342Z,0
2017-04-02T01:11:25.821Z,0
2017-04-02T01:12:06.285Z,0
2017-04-02T01:12:46.753Z,0
2017-04-02T01:13:27.230Z,0
2017-04-02T01:14:07.736Z,0
2017-04-02T01:14:48.186Z,0
2017-04-02T01:15:28.651Z,0
2017-04-02T01:16:09.102Z,0
2017-04-02T01:18:42.106Z,0
2017-04-02T01:19:22.615Z,0
2017-04-02T01:20:03.086Z,0
2017-04-02T01:20:43.582Z,0
2017-04-02T01:21:24.080Z,0
2017-04-02T01:22:04.543Z,0
2017-04-02T01:22:45.001Z,0
2017-04-02T01:23:25.514Z,0
2017-04-02T01:24:05.985Z,0
2017-04-02T01:24:46.461Z,0
2017-04-02T01:25:26.918Z,0
2017-04-02T01:26:07.417Z,0
2017-04-02T01:26:47.908Z,0
2017-04-02T01:27:28.343Z,0
2017-04-02T01:29:41.111Z,0
2017-04-02T01:30:21.540Z,0
2017-04-02T01:31:02.026Z,0
2017-04-02T01:31:42.523Z,0
2017-04-02T01:32:22.919Z,0
2017-04-02T01:34:55.943Z,0
2017-04-02T01:35:36.537Z,0
2017-04-02T01:36:17.038Z,0
2017-04-02T01:36:57.513Z,0
2017-04-02T01:37:37.991Z,0
2017-04-02T01:38:18.486Z,0
2017-04-02T01:38:58.974Z,0
2017-04-02T01:39:39.438Z,0
2017-04-02T01:42:17.512Z,0
2017-04-02T01:42:58.008Z,0
2017-04-02T01:43:38.468Z,0
2017-04-02T01:44:18.922Z,0
2017-04-02T01:44:59.379Z,0
2017-04-02T01:45:39.820Z,0
2017-04-02T01:46:20.274Z,0
2017-04-02T01:47:00.727Z,0
2017-04-02T01:47:41.187Z,0
2017-04-02T01:48:21.626Z,0
2017-04-02T01:49:02.069Z,0
2017-04-02T01:49:42.539Z,0
2017-04-02T01:50:23.011Z,0
2017-04-02T01:51:03.473Z,0
2017-04-02T01:51:43.985Z,0
2017-04-02T01:52:24.427Z,0
2017-04-02T01:53:04.940Z,0
2017-04-02T01:53:45.436Z,0
2017-04-02T01:54:25.868Z,0
2017-04-02T01:55:06.365Z,0
2017-04-02T01:57:34.252Z,0
2017-04-02T01:58:14.741Z,0
2017-04-02T01:58:55.224Z,0
2017-04-02T01:59:35.688Z,0
2017-04-02T02:00:16.170Z,0
2017-04-02T02:00:56.649Z,0
2017-04-02T02:01:37.103Z,0
2017-04-02T02:02:17.556Z,0
2017-04-02T02:02:57.988Z,0
2017-04-02T02:03:38.470Z,0
2017-04-02T02:04:18.930Z,0
2017-04-02T02:04:59.371Z,0
2017-04-02T02:05:39.830Z,0
2017-04-02T02:06:20.260Z,0
2017-04-02T02:07:00.710Z,0
2017-04-02T02:07:41.196Z,0
2017-04-02T02:09:59.000Z,0
2017-04-02T02:10:39.472Z,0
2017-04-02T02:11:19.959Z,0
2017-04-02T02:12:00.428Z,0
2017-04-02T02:12:40.896Z,0
2017-04-02T02:13:21.394Z,0
2017-04-02T02:14:01.874Z,0
2017-04-02T02:14:42.338Z,0
2017-04-02T02:15:22.815Z,0
2017-04-02T02:16:03.266Z,0
2017-04-02T02:16:43.695Z,0
2017-04-02T02:17:24.115Z,0
2017-04-02T02:19:36.823Z,0
2017-04-02T02:20:17.270Z,0
2017-04-02T02:20:57.730Z,0
2017-04-02T02:21:38.143Z,0
2017-04-02T02:22:18.616Z,0
2017-04-02T02:22:59.109Z,0
2017-04-02T02:23:39.528Z,0
2017-04-02T02:24:19.960Z,0
2017-04-02T02:25:00.429Z,0
2017-04-02T02:25:40.879Z,0
2017-04-02T02:26:21.387Z,0
2017-04-02T02:27:01.839Z,0
2017-04-02T02:27:42.278Z,0
2017-04-02T02:28:22.725Z,0
2017-04-02T02:30:55.718Z,0
2017-04-02T02:31:36.209Z,0
2017-04-02T02:32:16.674Z,0
2017-04-02T02:32:57.166Z,0
2017-04-02T02:33:37.691Z,0
2017-04-02T02:34:18.097Z,0
2017-04-02T02:34:58.612Z,0
2017-04-02T02:35:39.057Z,0
2017-04-02T02:36:19.546Z,0
2017-04-02T02:37:00.022Z,0
2017-04-02T02:39:38.087Z,0
2017-04-02T02:40:18.605Z,0
2017-04-02T02:40:59.112Z,0
2017-04-02T02:41:39.603Z,0
2017-04-02T02:42:20.117Z,0
2017-04-02T02:43:00.612Z,0
2017-04-02T02:43:41.137Z,0
2017-04-02T02:44:21.629Z,0
2017-04-02T02:45:02.097Z,0
2017-04-02T02:45:42.575Z,0
2017-04-02T02:46:23.058Z,0
2017-04-02T02:47:03.501Z,0
2017-04-02T02:47:43.940Z,0
2017-04-02T02:48:24.386Z,0
2017-04-02T02:50:52.326Z,0
2017-04-02T02:51:32.792Z,0
2017-04-02T02:52:13.261Z,0
2017-04-02T02:52:53.742Z,0
2017-04-02T02:53:34.215Z,0
2017-04-02T02:54:14.660Z,0
2017-04-02T02:54:55.105Z,0
2017-04-02T02:55:35.554Z,0
2017-04-02T02:56:16.028Z,0
2017-04-02T02:58:43.985Z,0
2017-04-02T02:59:24.456Z,0
2017-04-02T03:00:04.977Z,0
2017-04-02T03:00:45.449Z,0
2017-04-02T03:01:25.940Z,0
2017-04-02T03:02:06.413Z,0
2017-04-02T03:02:46.842Z,0
2017-04-02T03:03:27.344Z,0
2017-04-02T03:04:07.766Z,0
2017-04-02T03:06:25.586Z,0
2017-04-02T03:07:06.056Z,0
2017-04-02T03:07:46.539Z,0
2017-04-02T03:08:26.971Z,0
2017-04-02T03:09:07.460Z,0
2017-04-02T03:09:47.924Z,0
2017-04-02T03:12:20.915Z,0
2017-04-02T03:13:01.443Z,0
2017-04-02T03:13:41.869Z,0
2017-04-02T03:14:22.348Z,0
2017-04-02T03:15:02.802Z,0
2017-04-02T03:17:40.894Z,0
2017-04-02T03:18:21.390Z,0
2017-04-02T03:19:01.861Z,0
2017-04-02T03:19:42.337Z,0
2017-04-02T03:20:22.826Z,0
2017-04-02T03:21:03.271Z,0
2017-04-02T03:21:43.726Z,0
2017-04-02T03:22:24.182Z,0
2017-04-02T03:24:57.201Z,0
2017-04-02T03:25:37.697Z,0
2017-04-02T03:26:18.164Z,0
2017-04-02T03:28:51.347Z,0
2017-04-02T03:29:31.829Z,0
2017-04-02T03:30:12.311Z,0
2017-04-02T03:30:52.792Z,0
2017-04-02T03:31:33.273Z,0
2017-04-02T03:32:13.754Z,0
2017-04-02T03:32:54.216Z,0
2017-04-02T03:33:34.661Z,0
2017-04-02T03:34:15.113Z,0
2017-04-02T03:34:55.534Z,0
2017-04-02T03:37:33.613Z,0
2017-04-02T03:38:14.081Z,0
2017-04-02T03:38:54.594Z,0
2017-04-02T03:39:35.089Z,0
2017-04-02T03:40:15.573Z,0
2017-04-02T03:40:56.069Z,0
2017-04-02T03:41:36.535Z,0
2017-04-02T03:42:17.008Z,0
2017-04-02T03:42:57.454Z,0
2017-04-02T03:45:15.306Z,0
2017-04-02T03:45:55.755Z,0
2017-04-02T03:46:36.181Z,0
2017-04-02T03:48:48.892Z,0
2017-04-02T03:49:29.330Z,0
2017-04-02T03:50:09.819Z,0
2017-04-02T03:50:50.289Z,0
2017-04-02T03:51:30.753Z,0
2017-04-02T03:52:11.202Z,0
2017-04-02T03:52:51.625Z,0
2017-04-02T03:53:32.068Z,0
2017-04-02T03:54:12.521Z,0
2017-04-02T03:54:52.978Z,0
2017-04-02T03:55:33.407Z,0
2017-04-02T03:56:13.871Z,0
2017-04-02T03:56:54.316Z,0
2017-04-02T03:57:34.768Z,0
2017-04-02T03:58:15.220Z,0
2017-04-02T03:58:55.667Z,0
2017-04-02T03:59:36.112Z,0
2017-04-02T04:00:16.593Z,0
2017-04-02T04:00:57.040Z,0
2017-04-02T04:01:37.457Z,0
2017-04-02T04:02:17.877Z,0
2017-04-02T04:02:58.313Z,0
2017-04-02T04:05:11.027Z,0
2017-04-02T04:05:51.505Z,0
2017-04-02T04:06:32.028Z,0
2017-04-02T04:07:12.504Z,0
2017-04-02T04:07:52.994Z,0
2017-04-02T04:08:33.473Z,0
2017-04-02T04:09:14.595Z,0
2017-04-02T04:11:52.702Z,0
2017-04-02T04:12:33.189Z,0
2017-04-02T04:13:13.653Z,0
2017-04-02T04:13:54.149Z,0
2017-04-02T04:14:34.661Z,0
2017-04-02T04:15:15.180Z,0
2017-04-02T04:15:55.638Z,0
2017-04-02T04:16:36.114Z,0
2017-04-02T04:17:16.611Z,0
2017-04-02T04:17:57.078Z,0
2017-04-02T04:18:37.677Z,0
2017-04-02T04:20:50.426Z,0
2017-04-02T04:21:30.893Z,0
2017-04-02T04:22:11.350Z,0
2017-04-02T04:22:51.792Z,0
2017-04-02T04:23:32.258Z,0
2017-04-02T04:26:10.317Z,0
2017-04-02T04:26:50.796Z,0
2017-04-02T04:27:31.249Z,0
2017-04-02T04:28:11.713Z,0
2017-04-02T04:28:52.168Z,0
2017-04-02T04:29:32.588Z,0
2017-04-02T04:30:13.044Z,0
2017-04-02T04:30:53.459Z,0
2017-04-02T04:33:21.443Z,0
2017-04-02T04:34:02.001Z,0
2017-04-02T04:34:42.458Z,0
2017-04-02T04:35:22.883Z,0
2017-04-02T04:36:03.345Z,0
2017-04-02T04:36:43.794Z,0
2017-04-02T04:37:24.210Z,0
2017-04-02T04:38:04.650Z,0
2017-04-02T04:38:45.105Z,0
2017-04-02T04:39:25.539Z,0
2017-04-02T04:40:06.059Z,0
2017-04-02T04:40:46.481Z,0
2017-04-02T04:43:24.601Z,0
2017-04-02T04:44:05.055Z,0
2017-04-02T04:44:45.490Z,0
2017-04-02T04:45:25.964Z,0
2017-04-02T04:46:06.415Z,0
2017-04-02T04:46:46.882Z,0
2017-04-02T04:47:27.322Z,0
2017-04-02T04:48:07.781Z,0
2017-04-02T04:48:48.261Z,0
2017-04-02T04:51:16.187Z,0
2017-04-02T04:51:56.662Z,0
2017-04-02T04:52:37.124Z,0
2017-04-02T04:53:17.606Z,0
2017-04-02T04:53:58.121Z,0
2017-04-02T04:54:38.595Z,0
2017-04-02T04:55:19.055Z,0
2017-04-02T04:55:59.519Z,0
2017-04-02T04:56:39.989Z,0
2017-04-02T04:57:20.435Z,0
2017-04-02T04:58:00.904Z,0
2017-04-02T05:00:33.929Z,0
2017-04-02T05:01:14.923Z,0
2017-04-02T05:01:55.412Z,0
2017-04-02T05:02:35.890Z,0
2017-04-02T05:03:16.338Z,0
2017-04-02T05:03:56.880Z,0
2017-04-02T05:04:37.387Z,0
2017-04-02T05:05:17.881Z,0
2017-04-02T05:05:58.388Z,0
2017-04-02T05:06:38.856Z,0
2017-04-02T05:07:19.342Z,0
2017-04-02T05:07:59.772Z,0
2017-04-02T05:10:17.584Z,0
2017-04-02T05:10:58.055Z,0
2017-04-02T05:11:38.476Z,0
2017-04-02T05:12:18.915Z,0
2017-04-02T05:12:59.359Z,0
2017-04-02T05:13:39.823Z,0
2017-04-02T05:15:57.637Z,0
2017-04-02T05:16:38.144Z,0
2017-04-02T05:18:55.955Z,0
2017-04-02T05:19:36.461Z,0
2017-04-02T05:20:16.937Z,5
2017-04-02T05:20:57.407Z,5
2017-04-02T05:21:37.887Z,5
2017-04-02T05:22:18.362Z,5
2017-04-02T05:22:58.833Z,5
2017-04-02T05:23:39.272Z,5
2017-04-02T05:24:19.702Z,5
2017-04-02T05:25:00.170Z,5
2017-04-02T05:25:40.609Z,5
2017-04-02T05:26:21.063Z,5
2017-04-02T05:27:01.483Z,0
2017-04-02T05:27:41.912Z,0
2017-04-02T05:28:22.412Z,5
2017-04-02T05:29:02.824Z,5
2017-04-02T05:29:43.252Z,5
2017-04-02T05:30:23.720Z,5
2017-04-02T05:31:04.163Z,5
2017-04-02T05:31:44.605Z,5
2017-04-02T05:32:25.032Z,5
2017-04-02T05:33:05.456Z,5
2017-04-02T05:33:45.918Z,5
2017-04-02T05:34:26.410Z,5
2017-04-02T05:35:06.850Z,5
2017-04-02T05:35:47.317Z,5
2017-04-02T05:36:27.768Z,5
2017-04-02T05:37:08.213Z,5
2017-04-02T05:37:48.686Z,5
2017-04-02T05:38:29.111Z,5
2017-04-02T05:39:09.591Z,5
2017-04-02T05:39:50.042Z,5
2017-04-02T05:40:30.507Z,5
2017-04-02T05:41:11.548Z,5
2017-04-02T05:41:51.991Z,5
2017-04-02T05:42:32.458Z,5
2017-04-02T05:43:12.907Z,5
2017-04-02T05:43:53.390Z,5
2017-04-02T05:44:33.840Z,5
2017-04-02T05:45:14.256Z,5
2017-04-02T05:45:54.688Z,5
2017-04-02T05:46:35.116Z,5
2017-04-02T05:47:15.551Z,5
2017-04-02T05:47:56.018Z,10
2017-04-02T05:50:08.770Z,10
2017-04-02T05:50:49.238Z,10
2017-04-02T05:51:29.703Z,10
2017-04-02T05:52:10.136Z,10
2017-04-02T05:52:50.585Z,10
2017-04-02T05:53:31.010Z,10
2017-04-02T05:54:11.528Z,10
2017-04-02T05:54:51.962Z,10
2017-04-02T05:55:32.385Z,10
2017-04-02T05:56:12.852Z,10
2017-04-02T05:56:53.292Z,10
2017-04-02T05:57:33.746Z,10
2017-04-02T05:58:14.198Z,10
2017-04-02T05:58:54.635Z,10
2017-04-02T05:59:35.090Z,10
2017-04-02T06:00:15.578Z,10
2017-04-02T06:00:56.019Z,10
2017-04-02T06:01:36.496Z,10
2017-04-02T06:03:49.213Z,10
2017-04-02T06:04:29.718Z,10
2017-04-02T06:05:10.254Z,10
2017-04-02T06:05:50.737Z,10
2017-04-02T06:06:31.216Z,10
2017-04-02T06:07:11.845Z,15
2017-04-02T06:07:52.161Z,15
2017-04-02T06:08:32.641Z,15
2017-04-02T06:09:13.125Z,15
2017-04-02T06:09:53.603Z,15
2017-04-02T06:10:34.089Z,15
2017-04-02T06:11:14.603Z,15
2017-04-02T06:11:55.060Z,15
2017-04-02T06:12:35.542Z,20
2017-04-02T06:13:16.039Z,20
2017-04-02T06:13:56.525Z,20
2017-04-02T06:14:37.003Z,20
2017-04-02T06:15:17.529Z,20
2017-04-02T06:15:58.064Z,20
2017-04-02T06:16:38.503Z,20
2017-04-02T06:17:18.968Z,25
2017-04-02T06:18:00.304Z,25
2017-04-02T06:18:41.646Z,20
2017-04-02T06:19:22.659Z,20
2017-04-02T06:20:03.070Z,20
2017-04-02T06:20:43.506Z,20
2017-04-02T06:21:23.918Z,20
2017-04-02T06:22:04.372Z,20
2017-04-02T06:22:44.840Z,20
2017-04-02T06:25:17.831Z,20
2017-04-02T06:25:58.323Z,20
2017-04-02T06:26:38.816Z,20
2017-04-02T06:27:19.274Z,20
2017-04-02T06:27:59.768Z,20
2017-04-02T06:28:40.261Z,20
2017-04-02T06:29:20.731Z,20
2017-04-02T06:30:01.213Z,20
2017-04-02T06:30:41.681Z,25
2017-04-02T06:31:22.170Z,25
2017-04-02T06:32:02.682Z,25
2017-04-02T06:32:43.154Z,25
2017-04-02T06:33:23.625Z,25
2017-04-02T06:34:04.143Z,20
2017-04-02T06:34:44.606Z,20
2017-04-02T06:35:25.047Z,20
2017-04-02T06:36:05.524Z,20
2017-04-02T06:36:45.966Z,20
2017-04-02T06:39:18.969Z,20
2017-04-02T06:39:59.498Z,25
2017-04-02T06:40:39.968Z,25
2017-04-02T06:41:20.461Z,25
2017-04-02T06:42:00.935Z,25
2017-04-02T06:42:41.393Z,25
2017-04-02T06:45:19.485Z,30
2017-04-02T06:45:59.926Z,30
2017-04-02T06:46:40.386Z,35
2017-04-02T06:47:20.810Z,35
2017-04-02T07:08:53.594Z,0
2017-04-02T07:28:22.870Z,35
2017-04-02T07:53:27.741Z,415
2017-04-02T07:54:09.113Z,410
2017-04-02T07:54:49.668Z,425
2017-04-02T07:55:30.070Z,435
2017-04-02T07:56:10.550Z,455
2017-04-02T07:56:51.055Z,475
2017-04-02T07:57:31.540Z,480
2017-04-02T07:58:12.084Z,480
2017-04-02T07:58:52.567Z,485
2017-04-02T07:59:33.010Z,510
2017-04-02T08:00:13.511Z,500
2017-04-02T08:00:53.945Z,500
2017-04-02T08:01:34.425Z,515
2017-04-02T08:02:14.894Z,510
2017-04-02T08:02:55.328Z,505
2017-04-02T08:03:35.813Z,495
2017-04-02T08:06:10.077Z,450
2017-04-02T08:06:50.636Z,435
2017-04-02T08:07:34.618Z,420
2017-04-02T08:08:15.057Z,405
2017-04-02T08:10:43.025Z,355
2017-04-02T08:11:30.838Z,345
2017-04-02T08:12:11.307Z,345
2017-04-02T08:13:05.315Z,340
2017-04-02T08:14:02.845Z,345
2017-04-02T08:14:52.228Z,345
2017-04-02T08:15:35.262Z,350
2017-04-02T08:18:11.164Z,345
2017-04-02T08:18:53.151Z,350
2017-04-02T08:19:36.249Z,345
2017-04-02T08:20:16.997Z,340
2017-04-02T08:20:57.449Z,330
2017-04-02T08:21:37.888Z,315
2017-04-02T08:22:19.823Z,325
2017-04-02T08:23:07.090Z,330
2017-04-02T08:23:47.595Z,330
2017-04-02T08:26:25.715Z,335
2017-04-02T08:27:14.274Z,335
2017-04-02T08:27:56.933Z,345
2017-04-02T08:30:24.869Z,380
2017-04-02T08:32:52.875Z,390
2017-04-02T08:35:11.310Z,480
2017-04-02T08:35:55.897Z,490
2017-04-02T08:38:33.521Z,715
2017-04-02T08:39:14.500Z,675
2017-04-02T08:41:02.004Z,640
2017-04-02T08:42:41.995Z,515
2017-04-02T08:46:21.553Z,380
2017-04-02T08:47:16.626Z,355
2017-04-02T08:49:44.817Z,440
2017-04-02T08:50:39.236Z,475
2017-04-02T08:51:47.517Z,490
2017-04-02T08:52:27.978Z,550
2017-04-02T08:53:11.013Z,645
2017-04-02T08:53:51.471Z,555
2017-04-02T08:54:32.835Z,525
2017-04-02T08:55:24.790Z,505
2017-04-02T08:57:47.012Z,545
2017-04-02T09:18:07.978Z,260
2017-04-02T09:20:17.926Z,295
2017-04-02T09:21:06.607Z,305
2017-04-02T11:48:58.733Z,905
2017-04-02T11:49:39.208Z,765
2017-04-02T11:50:19.989Z,865
2017-04-02T11:51:00.442Z,825
2017-04-02T11:51:40.919Z,895
2017-04-02T11:52:39.590Z,875
2017-04-02T15:41:13.028Z,285
2017-04-02T15:41:58.274Z,295
2017-04-02T15:42:38.708Z,280
2017-04-02T15:50:15.106Z,225
2017-04-02T15:55:23.358Z,275
2017-04-02T16:44:21.172Z,140
2017-04-02T16:47:52.129Z,135
2017-04-02T16:48:56.520Z,130
2017-04-02T17:32:34.455Z,30
2017-04-02T18:04:15.666Z,0
2017-04-02T18:27:59.499Z,0
2017-04-02T18:34:29.987Z,0
2017-04-02T18:52:30.931Z,0
2017-04-02T18:53:11.445Z,0
2017-04-02T18:53:51.895Z,0
2017-04-02T18:54:32.379Z,0
2017-04-02T18:57:04.587Z,0
2017-04-02T18:57:51.946Z,0
2017-04-02T18:58:32.434Z,0
2017-04-02T18:59:12.858Z,0
2017-04-02T18:59:53.333Z,0
2017-04-02T19:00:33.799Z,0
2017-04-02T19:02:53.524Z,0
2017-04-02T19:03:45.924Z,0
2017-04-02T19:13:10.146Z,0
2017-04-02T19:13:50.675Z,0
2017-04-02T19:15:28.515Z,0
